createdAt,value
2017-07-27T08:03:58.811Z,2676
2017-07-27T08:05:00.540Z,2948
2017-07-27T08:14:57.775Z,2708
2017-07-27T08:15:59.491Z,2756
2017-07-27T08:17:01.284Z,2732
2017-07-27T08:18:02.992Z,2708
2017-07-27T08:19:04.652Z,2772
2017-07-27T08:20:06.352Z,2720
2017-07-27T08:21:08.019Z,2832
2017-07-27T08:22:09.689Z,2940
2017-07-27T08:23:11.414Z,2828
2017-07-27T08:24:23.847Z,2832
2017-07-27T08:25:25.617Z,3236
2017-07-27T08:26:38.325Z,2432
2017-07-27T08:27:40.045Z,2820
2017-07-27T08:28:43.875Z,3196
2017-07-27T08:29:45.600Z,2860
2017-07-27T08:30:59.335Z,2464
2017-07-27T08:32:01.057Z,2552
2017-07-27T08:33:02.827Z,2548
2017-07-27T08:34:04.557Z,2588
2017-07-27T08:35:06.342Z,2484
2017-07-27T08:36:08.088Z,2800
2017-07-27T08:37:09.855Z,2832
2017-07-27T08:38:11.570Z,2976
2017-07-27T08:39:15.288Z,2736
2017-07-27T08:40:17.018Z,2568
2017-07-27T08:41:18.769Z,2428
2017-07-27T08:42:21.561Z,2392
2017-07-27T08:43:23.337Z,2376
2017-07-27T08:44:26.195Z,2444
2017-07-27T08:45:27.937Z,2616
2017-07-27T08:46:29.749Z,2980
2017-07-27T08:47:31.438Z,2740
2017-07-27T08:48:34.268Z,2168
2017-07-27T08:49:35.996Z,2184
2017-07-27T08:50:37.754Z,2060
2017-07-27T08:51:39.482Z,1824
2017-07-27T08:52:41.191Z,1852
2017-07-27T08:53:42.928Z,1968
2017-07-27T08:54:44.745Z,1780
2017-07-27T08:55:46.515Z,1716
2017-07-27T08:56:48.364Z,1504
2017-07-27T08:57:50.018Z,1420
2017-07-27T08:58:51.830Z,1436
2017-07-27T08:59:53.602Z,1464
2017-07-27T09:00:55.417Z,1500
2017-07-27T09:01:57.134Z,1564
2017-07-27T09:02:58.793Z,1700
2017-07-27T09:04:00.517Z,1656
2017-07-27T09:05:02.329Z,1540
2017-07-27T09:06:04.070Z,1524
2017-07-27T09:07:05.813Z,1584
2017-07-27T09:08:07.461Z,1796
2017-07-27T09:09:09.222Z,2108
2017-07-27T09:10:10.960Z,2412
2017-07-27T09:11:12.700Z,2628
2017-07-27T09:12:14.420Z,2576
2017-07-27T09:13:16.158Z,2472
2017-07-27T09:14:17.874Z,1984
2017-07-27T09:15:19.544Z,1552
2017-07-27T09:16:21.264Z,1792
2017-07-27T09:17:22.916Z,1660
2017-07-27T09:18:24.648Z,1832
2017-07-27T09:19:26.427Z,1796
2017-07-27T09:20:28.152Z,1920
2017-07-27T09:21:29.901Z,2032
2017-07-27T09:22:31.617Z,2220
2017-07-27T09:23:33.351Z,1988
2017-07-27T09:24:35.004Z,1896
2017-07-27T09:25:36.686Z,1856
2017-07-27T09:26:38.410Z,1896
2017-07-27T09:27:40.125Z,1920
2017-07-27T09:28:41.844Z,2148
2017-07-27T09:29:43.617Z,2416
2017-07-27T09:30:45.331Z,3064
2017-07-27T09:31:46.988Z,3492
2017-07-27T09:32:48.724Z,3236
2017-07-27T09:33:50.387Z,2292
2017-07-27T09:34:52.114Z,2572
2017-07-27T09:35:53.858Z,2796
2017-07-27T09:36:55.584Z,2668
2017-07-27T09:37:57.312Z,2204
2017-07-27T09:38:59.041Z,2188
2017-07-27T09:40:00.815Z,2060
2017-07-27T09:41:02.494Z,1700
2017-07-27T09:42:04.274Z,1360
2017-07-27T09:43:05.993Z,1964
2017-07-27T09:44:07.739Z,1456
2017-07-27T09:45:09.480Z,1548
2017-07-27T09:46:11.144Z,1700
2017-07-27T09:47:12.988Z,1836
2017-07-27T09:48:14.704Z,1760
2017-07-27T09:49:16.456Z,1740
2017-07-27T09:50:18.200Z,1712
2017-07-27T09:51:19.858Z,2084
2017-07-27T09:52:21.618Z,1956
2017-07-27T09:53:23.293Z,2560
2017-07-27T09:54:25.095Z,2076
2017-07-27T09:55:26.918Z,1552
2017-07-27T09:56:28.597Z,1512
2017-07-27T09:57:30.395Z,1500
2017-07-27T09:58:32.131Z,2100
2017-07-27T09:59:33.879Z,2272
2017-07-27T10:00:35.636Z,2148
2017-07-27T10:01:37.296Z,1944
2017-07-27T10:02:39.029Z,2632
2017-07-27T10:03:47.074Z,2816
2017-07-27T10:04:48.826Z,2768
2017-07-27T10:05:50.662Z,3124
2017-07-27T10:06:52.380Z,3176
2017-07-27T10:07:54.134Z,3088
2017-07-27T10:08:55.861Z,2800
2017-07-27T10:09:57.590Z,2948
2017-07-27T10:10:59.330Z,2728
2017-07-27T10:12:01.795Z,2676
2017-07-27T10:13:03.549Z,2500
2017-07-27T10:14:05.321Z,2216
2017-07-27T10:15:07.048Z,1940
2017-07-27T10:16:08.730Z,1772
2017-07-27T10:17:10.432Z,1632
2017-07-27T10:18:12.233Z,1340
2017-07-27T10:19:14.076Z,1984
2017-07-27T10:20:15.743Z,2188
2017-07-27T10:21:17.493Z,2192
2017-07-27T10:22:19.471Z,2184
2017-07-27T10:23:21.272Z,2236
2017-07-27T10:24:22.939Z,2268
2017-07-27T10:25:24.677Z,2312
2017-07-27T10:26:26.668Z,2484
2017-07-27T10:27:28.423Z,2480
2017-07-27T10:28:30.159Z,2364
2017-07-27T10:29:32.111Z,2328
2017-07-27T10:30:33.803Z,2288
2017-07-27T10:31:35.538Z,2448
2017-07-27T10:32:37.195Z,2512
2017-07-27T10:33:40.625Z,2592
2017-07-27T10:34:44.321Z,2364
2017-07-27T10:35:45.980Z,2216
2017-07-27T10:36:49.741Z,2356
2017-07-27T10:37:51.419Z,2588
2017-07-27T10:38:53.167Z,2732
2017-07-27T10:39:54.801Z,2616
2017-07-27T10:41:03.279Z,2552
2017-07-27T10:42:05.007Z,2520
2017-07-27T10:43:11.343Z,2620
2017-07-27T10:44:13.142Z,2796
2017-07-27T10:45:29.894Z,2808
2017-07-27T10:46:31.630Z,2700
2017-07-27T11:16:44.440Z,3288
2017-07-27T11:17:46.132Z,3472
2017-07-27T11:18:47.795Z,3696
2017-07-27T11:19:49.561Z,3576
2017-07-27T11:20:51.226Z,3356
2017-07-27T11:21:52.894Z,3236
2017-07-27T11:22:54.599Z,3108
2017-07-27T11:23:56.261Z,3192
2017-07-27T11:24:57.972Z,3388
2017-07-27T11:25:59.738Z,3548
2017-07-27T11:27:01.429Z,3584
2017-07-27T11:28:03.245Z,3584
2017-07-27T11:29:04.933Z,3528
2017-07-27T11:30:06.632Z,3524
2017-07-27T11:31:08.290Z,3484
2017-07-27T11:32:10.126Z,3184
2017-07-27T11:33:11.795Z,3252
2017-07-27T11:34:13.634Z,3380
2017-07-27T11:35:15.300Z,3404
2017-07-27T11:36:17.120Z,3140
2017-07-27T11:37:18.797Z,2656
2017-07-27T11:38:20.619Z,2424
2017-07-27T11:39:22.343Z,2484
2017-07-27T11:40:24.018Z,1824
2017-07-27T11:41:25.850Z,1760
2017-07-27T11:42:27.574Z,1984
2017-07-27T11:43:29.233Z,2116
2017-07-27T11:44:30.999Z,2280
2017-07-27T11:45:32.659Z,2416
2017-07-27T11:46:34.497Z,2312
2017-07-27T11:47:36.150Z,2392
2017-07-27T11:48:37.806Z,2496
2017-07-27T11:49:39.484Z,2516
2017-07-27T11:50:41.170Z,2320
2017-07-27T11:51:43.919Z,1980
2017-07-27T11:52:45.601Z,1928
2017-07-27T11:53:48.326Z,2188
2017-07-27T11:54:50.016Z,2740
2017-07-27T11:55:51.795Z,2892
2017-07-27T11:56:53.463Z,2580
2017-07-27T11:58:11.995Z,2480
2017-07-27T11:59:13.667Z,2608
2017-07-27T12:18:49.962Z,2572
2017-07-27T12:19:51.619Z,2540
2017-07-27T12:20:54.541Z,2488
2017-07-27T12:21:56.198Z,2304
2017-07-27T12:22:59.970Z,1976
2017-07-27T12:24:01.624Z,1736
2017-07-27T12:25:18.921Z,1680
2017-07-27T12:26:20.584Z,1976
2017-07-27T12:27:38.924Z,2340
2017-07-27T12:28:40.571Z,2740
2017-07-27T12:29:43.319Z,2672
2017-07-27T12:30:44.982Z,2552
2017-07-27T12:31:46.718Z,2488
2017-07-27T12:32:48.369Z,2712
2017-07-27T12:33:50.109Z,2884
2017-07-27T12:34:51.853Z,2928
2017-07-27T12:35:53.613Z,2764
2017-07-27T12:36:55.288Z,2992
2017-07-27T12:37:57.103Z,3340
2017-07-27T12:38:58.838Z,3520
2017-07-27T12:40:00.491Z,3540
2017-07-27T12:41:02.149Z,3428
2017-07-27T12:42:04.927Z,3476
2017-07-27T12:43:06.590Z,3536
2017-07-27T12:44:09.789Z,3472
2017-07-27T12:45:11.456Z,3000
2017-07-27T12:46:14.215Z,2672
2017-07-27T12:47:15.881Z,2860
2017-07-27T12:48:28.522Z,2988
2017-07-27T12:49:30.181Z,3036
2017-07-27T12:50:36.868Z,2964
2017-07-27T12:51:38.532Z,2860
2017-07-27T12:52:40.272Z,2768
2017-07-27T12:53:41.918Z,2552
2017-07-27T12:54:45.721Z,2360
2017-07-27T12:55:47.375Z,2352
2017-07-27T12:56:49.103Z,2260
2017-07-27T12:57:50.771Z,2144
2017-07-27T12:59:03.480Z,2276
2017-07-27T13:00:05.149Z,2288
2017-07-27T13:01:06.859Z,2464
2017-07-27T13:02:08.528Z,2760
2017-07-27T13:03:12.307Z,2940
2017-07-27T13:04:14.030Z,2972
2017-07-27T13:05:16.813Z,2980
2017-07-27T13:06:18.488Z,2952
2017-07-27T13:07:22.268Z,2960
2017-07-27T13:08:23.972Z,2800
2017-07-27T13:09:25.935Z,2444
2017-07-27T13:10:27.743Z,2052
2017-07-27T13:11:29.454Z,1840
2017-07-27T13:12:31.124Z,1952
2017-07-27T13:13:48.460Z,2060
2017-07-27T13:14:50.266Z,2140
2017-07-27T13:15:59.154Z,2156
2017-07-27T13:17:01.046Z,2148
2017-07-27T13:18:03.002Z,2068
2017-07-27T13:19:04.947Z,1928
2017-07-27T13:20:06.961Z,1964
2017-07-27T13:21:08.858Z,2052
2017-07-27T13:22:11.898Z,2120
2017-07-27T13:23:13.805Z,2164
2017-07-27T13:24:17.825Z,2204
2017-07-27T13:25:19.716Z,2244
2017-07-27T13:26:21.685Z,2284
2017-07-27T13:27:23.674Z,2320
2017-07-27T13:28:32.179Z,2328
2017-07-27T13:29:33.968Z,2280
2017-07-27T13:30:42.468Z,2240
2017-07-27T13:31:44.198Z,2188
2017-07-27T13:32:47.990Z,2108
2017-07-27T13:33:49.767Z,2012
2017-07-27T13:34:53.583Z,1880
2017-07-27T13:35:55.355Z,1748
2017-07-27T13:36:58.220Z,1632
2017-07-27T13:38:00.024Z,1536
2017-07-27T13:39:08.577Z,1452
2017-07-27T13:40:10.401Z,1396
2017-07-27T13:41:23.007Z,1396
2017-07-27T13:42:24.848Z,1352
2017-07-27T13:43:27.850Z,1244
2017-07-27T13:44:29.784Z,1156
2017-07-27T13:45:31.789Z,1152
2017-07-27T13:46:33.745Z,1140
2017-07-27T13:47:36.742Z,1112
2017-07-27T13:48:38.672Z,1064
2017-07-27T13:49:40.505Z,1044
2017-07-27T13:50:42.435Z,1056
2017-07-27T13:51:44.407Z,1112
2017-07-27T13:52:46.369Z,1188
2017-07-27T13:53:48.223Z,1272
2017-07-27T13:54:50.104Z,1456
2017-07-27T13:55:52.130Z,1748
2017-07-27T13:56:54.061Z,2120
2017-07-27T13:58:00.549Z,2340
2017-07-27T13:59:02.342Z,2440
2017-07-27T14:00:05.217Z,2512
2017-07-27T14:01:07.015Z,2540
2017-07-27T14:02:09.832Z,2504
2017-07-27T14:03:11.512Z,2516
2017-07-27T14:04:14.309Z,2616
2017-07-27T14:05:16.040Z,2712
2017-07-27T14:06:17.707Z,2704
2017-07-27T14:07:19.443Z,2636
2017-07-27T14:08:27.949Z,2632
2017-07-27T14:09:29.700Z,2696
2017-07-27T14:10:33.427Z,2764
2017-07-27T14:11:35.145Z,2816
2017-07-27T14:12:37.864Z,2860
2017-07-27T14:13:39.635Z,2868
2017-07-27T14:14:46.002Z,2872
2017-07-27T14:15:47.739Z,2868
2017-07-27T14:16:49.509Z,2828
2017-07-27T14:17:51.243Z,2748
2017-07-27T14:18:55.045Z,2636
2017-07-27T14:19:56.772Z,2596
2017-07-27T14:20:58.574Z,2600
2017-07-27T14:22:00.236Z,2592
2017-07-27T14:23:14.036Z,2548
2017-07-27T14:24:15.693Z,2504
2017-07-27T14:25:17.515Z,2476
2017-07-27T14:26:19.258Z,2424
2017-07-27T14:27:22.165Z,2368
2017-07-27T14:28:23.903Z,2368
2017-07-27T14:29:26.672Z,2380
2017-07-27T14:30:28.420Z,2376
2017-07-27T14:31:31.191Z,2352
2017-07-27T14:32:32.852Z,2376
2017-07-27T14:33:34.690Z,2392
2017-07-27T14:34:36.434Z,2416
2017-07-27T14:35:38.196Z,2476
2017-07-27T14:36:39.942Z,2504
2017-07-27T14:37:41.626Z,2508
2017-07-27T14:38:43.346Z,2532
2017-07-27T14:39:45.003Z,2556
2017-07-27T14:40:46.805Z,2592
2017-07-27T14:41:48.657Z,2616
2017-07-27T14:42:50.408Z,2648
2017-07-27T14:43:56.915Z,2644
2017-07-27T14:44:58.641Z,2564
2017-07-27T14:46:00.390Z,2576
2017-07-27T14:47:02.048Z,2228
2017-07-27T14:48:05.795Z,1896
2017-07-27T14:49:07.552Z,1848
2017-07-27T14:50:09.301Z,1932
2017-07-27T14:51:11.021Z,1956
2017-07-27T14:52:13.755Z,1996
2017-07-27T14:53:15.476Z,1980
2017-07-27T14:54:17.141Z,1896
2017-07-27T14:55:18.878Z,1808
2017-07-27T14:56:20.616Z,1776
2017-07-27T14:57:22.337Z,1684
2017-07-27T14:58:24.065Z,1668
2017-07-27T14:59:25.803Z,1708
2017-07-27T15:00:27.560Z,1768
2017-07-27T15:01:29.178Z,1852
2017-07-27T15:02:30.905Z,1960
2017-07-27T15:03:32.564Z,1896
2017-07-27T15:04:34.299Z,1964
2017-07-27T15:05:36.031Z,2084
2017-07-27T15:06:37.783Z,2088
2017-07-27T15:07:39.544Z,2040
2017-07-27T15:08:41.251Z,1964
2017-07-27T15:09:42.968Z,1844
2017-07-27T15:10:44.631Z,1728
2017-07-27T15:11:46.391Z,1604
2017-07-27T15:12:48.143Z,1484
2017-07-27T15:13:49.898Z,1424
2017-07-27T15:14:51.698Z,1428
2017-07-27T15:15:53.362Z,1432
2017-07-27T15:16:57.115Z,1472
2017-07-27T15:17:58.869Z,1512
2017-07-27T15:19:00.609Z,1580
2017-07-27T15:20:02.337Z,1652
2017-07-27T15:21:04.071Z,1748
2017-07-27T15:22:05.797Z,1840
2017-07-27T15:23:07.452Z,1868
2017-07-27T15:24:09.199Z,1820
2017-07-27T15:25:10.861Z,1712
2017-07-27T15:26:12.604Z,1596
2017-07-27T15:27:14.355Z,1532
2017-07-27T15:28:16.106Z,1508
2017-07-27T15:29:17.922Z,1492
2017-07-27T15:30:19.589Z,1496
2017-07-27T15:31:21.346Z,1544
2017-07-27T15:32:23.090Z,1684
2017-07-27T15:33:24.817Z,1856
2017-07-27T15:34:26.559Z,1932
2017-07-27T15:35:28.283Z,1960
2017-07-27T15:36:30.043Z,1952
2017-07-27T15:37:31.772Z,1944
2017-07-27T15:38:33.493Z,1984
2017-07-27T15:39:35.283Z,1904
2017-07-27T15:40:36.987Z,1836
2017-07-27T15:41:38.691Z,1864
2017-07-27T15:42:40.393Z,1968
2017-07-27T15:43:42.109Z,1900
2017-07-27T15:44:43.859Z,1780
2017-07-27T15:45:46.575Z,1500
2017-07-27T15:46:48.305Z,1196
2017-07-27T15:47:50.038Z,948
2017-07-27T15:48:51.801Z,800
2017-07-27T15:49:53.537Z,752
2017-07-27T15:50:55.290Z,792
2017-07-27T15:51:56.990Z,924
2017-07-27T15:52:58.751Z,1108
2017-07-27T15:54:00.455Z,1344
2017-07-27T15:55:02.136Z,1636
2017-07-27T15:56:05.906Z,1876
2017-07-27T15:57:07.647Z,1984
2017-07-27T15:58:09.384Z,2004
2017-07-27T15:59:11.120Z,2012
2017-07-27T16:00:12.854Z,1924
2017-07-27T16:01:14.614Z,1752
2017-07-27T16:02:16.394Z,1520
2017-07-27T16:03:18.120Z,1328
2017-07-27T16:04:19.852Z,1156
2017-07-27T16:05:21.616Z,1008
2017-07-27T16:06:23.347Z,908
2017-07-27T16:07:25.026Z,840
2017-07-27T16:08:26.763Z,904
2017-07-27T16:09:28.480Z,1060
2017-07-27T16:10:30.229Z,1204
2017-07-27T16:11:31.970Z,1316
2017-07-27T16:12:33.705Z,1408
2017-07-27T16:13:35.684Z,1512
2017-07-27T16:14:37.416Z,1560
2017-07-27T16:15:39.166Z,1576
2017-07-27T16:16:40.940Z,1612
2017-07-27T16:17:42.600Z,1588
2017-07-27T16:18:44.380Z,1488
2017-07-27T16:19:46.110Z,1440
2017-07-27T16:20:47.939Z,1404
2017-07-27T16:21:49.677Z,1472
2017-07-27T16:22:51.363Z,1632
2017-07-27T16:23:53.101Z,1748
2017-07-27T16:24:54.846Z,1808
2017-07-27T16:25:56.595Z,1848
2017-07-27T16:26:58.358Z,1864
2017-07-27T16:28:00.024Z,1916
2017-07-27T16:29:02.771Z,1960
2017-07-27T16:30:04.466Z,1940
2017-07-27T16:31:06.207Z,1940
2017-07-27T16:32:08.007Z,1968
2017-07-27T16:33:09.765Z,2008
2017-07-27T16:34:11.507Z,2092
2017-07-27T16:35:13.169Z,2140
2017-07-27T16:36:14.906Z,2048
2017-07-27T16:37:16.643Z,1872
2017-07-27T16:38:18.393Z,1612
2017-07-27T16:39:20.126Z,1468
2017-07-27T16:40:21.852Z,1284
2017-07-27T16:41:23.598Z,1116
2017-07-27T16:42:25.252Z,1008
2017-07-27T16:43:26.976Z,960
2017-07-27T16:44:28.710Z,964
2017-07-27T16:45:30.444Z,1004
2017-07-27T16:46:32.204Z,980
2017-07-27T16:47:33.935Z,992
2017-07-27T16:48:35.659Z,1044
2017-07-27T16:49:37.332Z,1072
2017-07-27T16:50:39.092Z,1100
2017-07-27T16:51:40.828Z,1076
2017-07-27T16:52:42.549Z,1076
2017-07-27T16:53:44.295Z,1080
2017-07-27T16:54:46.029Z,1100
2017-07-27T16:55:47.761Z,1092
2017-07-27T16:56:49.427Z,1100
2017-07-27T16:57:51.183Z,1100
2017-07-27T16:58:52.911Z,1072
2017-07-27T16:59:54.666Z,1036
2017-07-27T17:00:56.392Z,1004
2017-07-27T17:01:58.114Z,960
2017-07-27T17:02:59.849Z,900
2017-07-27T17:04:01.519Z,840
2017-07-27T17:05:03.287Z,808
2017-07-27T17:06:05.041Z,780
2017-07-27T17:07:06.792Z,780
2017-07-27T17:08:08.540Z,772
2017-07-27T17:09:10.208Z,784
2017-07-27T17:10:11.935Z,828
2017-07-27T17:11:13.656Z,876
2017-07-27T17:12:15.397Z,864
2017-07-27T17:13:17.109Z,828
2017-07-27T17:14:18.833Z,796
2017-07-27T17:15:20.666Z,740
2017-07-27T17:16:22.346Z,692
2017-07-27T17:17:24.085Z,676
2017-07-27T17:18:25.815Z,672
2017-07-27T17:19:27.543Z,672
2017-07-27T17:20:29.294Z,696
2017-07-27T17:21:31.021Z,728
2017-07-27T17:22:32.804Z,756
2017-07-27T17:23:35.457Z,752
2017-07-27T17:24:37.222Z,744
2017-07-27T17:25:38.958Z,748
2017-07-27T17:26:40.682Z,708
2017-07-27T17:27:42.418Z,720
2017-07-27T17:28:44.315Z,768
2017-07-27T17:29:46.060Z,880
2017-07-27T17:30:47.842Z,1076
2017-07-27T17:31:49.813Z,1184
2017-07-27T17:32:52.486Z,1252
2017-07-27T17:33:55.418Z,1172
2017-07-27T17:34:57.097Z,1000
2017-07-27T17:35:58.828Z,1044
2017-07-27T17:37:00.777Z,980
2017-07-27T17:38:02.510Z,964
2017-07-27T17:39:04.380Z,948
2017-07-27T17:40:06.157Z,912
2017-07-27T17:41:07.977Z,872
2017-07-27T17:42:10.676Z,836
2017-07-27T17:43:12.406Z,804
2017-07-27T17:44:14.301Z,764
2017-07-27T17:45:16.148Z,724
2017-07-27T17:46:17.864Z,684
2017-07-27T17:47:19.659Z,656
2017-07-27T17:48:21.401Z,636
2017-07-27T17:49:23.242Z,624
2017-07-27T17:50:24.978Z,612
2017-07-27T17:51:26.809Z,608
2017-07-27T17:52:28.551Z,604
2017-07-27T17:53:31.284Z,600
2017-07-27T17:54:33.158Z,588
2017-07-27T17:55:34.970Z,580
2017-07-27T17:56:37.606Z,568
2017-07-27T17:57:39.941Z,560
2017-07-27T17:58:41.731Z,532
2017-07-27T17:59:43.532Z,508
2017-07-27T18:00:45.258Z,488
2017-07-27T18:01:47.115Z,468
2017-07-27T18:02:48.897Z,440
2017-07-27T18:03:50.993Z,416
2017-07-27T18:04:52.940Z,396
2017-07-27T18:05:56.187Z,380
2017-07-27T18:06:57.854Z,372
2017-07-27T18:07:59.647Z,364
2017-07-27T18:09:01.318Z,360
2017-07-27T18:10:03.005Z,356
2017-07-27T18:11:04.683Z,356
2017-07-27T18:12:07.108Z,360
2017-07-27T18:13:08.830Z,356
2017-07-27T18:14:10.680Z,356
2017-07-27T18:15:12.814Z,356
2017-07-27T18:16:15.685Z,356
2017-07-27T18:17:17.449Z,356
2017-07-27T18:18:21.545Z,356
2017-07-27T18:19:23.323Z,348
2017-07-27T18:20:25.224Z,344
2017-07-27T18:21:27.104Z,336
2017-07-27T18:22:28.898Z,324
2017-07-27T18:23:30.671Z,320
2017-07-27T18:33:22.324Z,288
2017-07-27T19:28:59.662Z,24
2017-07-27T19:30:01.385Z,24
2017-07-27T19:31:03.159Z,20
2017-07-27T19:32:05.022Z,20
2017-07-27T19:33:06.672Z,20
2017-07-27T19:34:08.336Z,16
2017-07-27T19:35:10.001Z,16
2017-07-27T19:36:11.666Z,12
2017-07-27T19:37:13.391Z,12
2017-07-27T19:38:15.040Z,16
2017-07-27T19:39:17.189Z,12
2017-07-27T19:40:18.867Z,12
2017-07-27T19:41:20.727Z,8
2017-07-27T19:42:22.367Z,8
2017-07-27T19:43:24.023Z,8
2017-07-27T19:44:25.683Z,8
2017-07-27T19:45:27.335Z,4
2017-07-27T19:46:28.983Z,8
2017-07-27T19:47:30.637Z,4
2017-07-27T19:48:32.508Z,4
2017-07-27T19:49:34.159Z,4
2017-07-27T19:50:35.815Z,0
2017-07-27T19:51:37.737Z,4
2017-07-27T19:52:39.505Z,4
2017-07-27T19:53:41.211Z,4
2017-07-27T19:54:43.023Z,4
2017-07-27T19:55:44.711Z,0
2017-07-27T19:56:46.491Z,0
2017-07-27T19:57:48.149Z,0
2017-07-27T19:58:49.883Z,0
2017-07-27T19:59:51.577Z,0
2017-07-27T20:00:53.335Z,0
2017-07-27T20:01:54.994Z,0
2017-07-27T20:02:56.769Z,0
2017-07-27T20:03:58.426Z,0
2017-07-27T20:05:00.229Z,0
2017-07-27T20:06:01.928Z,0
2017-07-27T20:07:03.668Z,0
2017-07-27T20:08:05.317Z,0
2017-07-27T20:09:07.068Z,0
2017-07-27T20:10:08.736Z,0
2017-07-27T20:11:10.461Z,0
2017-07-27T20:12:12.239Z,0
2017-07-27T20:13:13.939Z,0
2017-07-27T20:14:15.584Z,0
2017-07-27T20:15:17.333Z,0
2017-07-27T20:16:19.188Z,0
2017-07-27T20:17:20.996Z,0
2017-07-27T20:18:23.022Z,0
2017-07-27T20:19:24.765Z,0
2017-07-27T20:20:26.417Z,0
2017-07-27T20:21:28.122Z,0
2017-07-27T20:22:29.859Z,0
2017-07-27T20:23:31.652Z,0
2017-07-27T20:24:33.304Z,0
2017-07-27T20:25:36.765Z,0
2017-07-27T20:26:38.418Z,0
2017-07-27T20:27:40.156Z,0
2017-07-27T20:28:41.818Z,0
2017-07-27T20:29:43.701Z,0
2017-07-27T20:30:45.356Z,0
2017-07-27T20:31:47.165Z,0
2017-07-27T20:32:48.867Z,0
2017-07-27T20:33:50.638Z,0
2017-07-27T20:34:52.315Z,0
2017-07-27T20:35:54.061Z,0
2017-07-27T20:36:55.725Z,0
2017-07-27T20:37:57.524Z,0
2017-07-27T20:38:59.184Z,0
2017-07-27T20:40:00.927Z,0
2017-07-27T20:41:02.584Z,0
2017-07-27T20:42:05.106Z,0
2017-07-27T20:43:07.462Z,0
2017-07-27T20:44:09.074Z,0
2017-07-27T20:45:10.762Z,0
2017-07-27T20:46:12.619Z,0
2017-07-27T20:47:14.391Z,0
2017-07-27T20:48:16.152Z,0
2017-07-27T20:49:17.871Z,0
2017-07-27T20:50:19.672Z,0
2017-07-27T20:51:21.738Z,0
2017-07-27T20:52:23.756Z,0
2017-07-27T20:53:25.520Z,0
2017-07-27T20:54:28.091Z,0
2017-07-27T20:55:29.873Z,0
2017-07-27T20:56:31.726Z,0
2017-07-27T20:57:33.457Z,0
2017-07-27T20:58:35.274Z,0
2017-07-27T20:59:37.066Z,0
2017-07-27T21:00:39.498Z,0
2017-07-27T21:01:42.114Z,0
2017-07-27T21:02:43.921Z,0
2017-07-27T21:03:45.661Z,0
2017-07-27T21:04:47.769Z,0
2017-07-27T21:05:50.844Z,0
2017-07-27T21:06:52.562Z,0
2017-07-27T21:07:54.384Z,0
2017-07-27T21:08:56.212Z,0
2017-07-27T21:09:57.942Z,0
2017-07-27T21:10:59.762Z,0
2017-07-27T21:12:01.455Z,0
2017-07-27T21:13:03.391Z,0
2017-07-27T21:14:05.450Z,0
2017-07-27T21:15:07.220Z,0
2017-07-27T21:16:09.013Z,0
2017-07-27T21:17:10.867Z,0
2017-07-27T21:18:12.621Z,0
2017-07-27T21:19:15.460Z,0
2017-07-27T21:20:17.188Z,0
2017-07-27T21:40:11.594Z,0
2017-07-27T21:41:13.222Z,0
2017-07-27T21:42:14.922Z,0
2017-07-27T21:43:16.588Z,0
2017-07-27T21:44:23.032Z,0
2017-07-27T21:45:24.722Z,0
2017-07-27T21:46:26.404Z,0
2017-07-27T21:47:28.056Z,0
2017-07-27T21:48:30.065Z,0
2017-07-27T21:49:31.850Z,0
2017-07-27T21:50:33.505Z,0
2017-07-27T21:51:35.823Z,0
2017-07-27T21:52:37.512Z,0
2017-07-27T21:53:39.592Z,0
2017-07-27T21:54:43.154Z,0
2017-07-27T21:55:44.786Z,0
2017-07-27T21:56:46.440Z,0
2017-07-27T21:57:48.106Z,0
2017-07-27T21:58:49.758Z,0
2017-07-27T21:59:51.411Z,0
2017-07-27T22:00:53.121Z,0
2017-07-27T22:01:54.772Z,0
2017-07-27T22:02:58.467Z,0
2017-07-27T22:04:00.137Z,0
2017-07-27T22:05:01.853Z,0
2017-07-27T22:06:03.715Z,0
2017-07-27T22:07:05.360Z,0
2017-07-27T22:08:07.013Z,0
2017-07-27T22:09:08.669Z,0
2017-07-27T22:10:10.327Z,0
2017-07-27T22:11:12.043Z,0
2017-07-27T22:12:13.696Z,0
2017-07-27T22:13:15.427Z,0
2017-07-27T22:14:17.076Z,0
2017-07-27T22:15:18.835Z,0
2017-07-27T22:16:20.502Z,0
2017-07-27T22:17:22.226Z,0
2017-07-27T22:18:23.876Z,0
2017-07-27T22:19:25.620Z,0
2017-07-27T22:20:27.299Z,0
2017-07-27T22:21:28.959Z,0
2017-07-27T22:22:30.629Z,0
2017-07-27T22:23:32.284Z,0
2017-07-27T22:24:33.938Z,0
2017-07-27T22:25:35.612Z,0
2017-07-27T22:26:37.258Z,0
2017-07-27T22:27:38.928Z,0
2017-07-27T22:28:40.616Z,0
2017-07-27T22:29:42.277Z,0
2017-07-27T22:30:49.023Z,0
2017-07-27T22:31:50.687Z,0
2017-07-27T22:32:52.436Z,0
2017-07-27T22:33:54.086Z,0
2017-07-27T22:34:55.746Z,0
2017-07-27T22:35:57.473Z,0
2017-07-27T22:36:59.136Z,0
2017-07-27T22:38:00.785Z,0
2017-07-27T22:39:02.473Z,0
2017-07-27T22:40:04.141Z,0
2017-07-27T22:41:05.797Z,0
2017-07-27T22:42:07.548Z,0
2017-07-27T22:43:09.200Z,0
2017-07-27T22:44:10.859Z,0
2017-07-27T22:45:12.586Z,0
2017-07-27T22:46:14.247Z,0
2017-07-27T22:47:15.919Z,0
2017-07-27T22:48:17.569Z,0
2017-07-27T22:49:19.214Z,0
2017-07-27T22:50:20.888Z,0
2017-07-27T23:56:26.406Z,0
